Time;durP1;ratioP1;P1;durP2;ratioP2;P2;SDS_P1;SDS_P2;PMS_P1;PMS_P2;Temp;Humidity;BMP_temperature;BMP_pressure;BME280_temperature;BME280_humidity;BME280_pressure;Samples;Min_cycle;Max_cycle;Signal;HPM_P1;HPM_P2
2023/06/30 00:01:33;;;;;;;21.42;12.40;;;;;;;15.33;96.75;101348.41;5014822;28;20026;-67
2023/06/30 00:03:58;;;;;;;21.88;12.07;;;;;;;15.22;96.91;101357.09;5014967;28;20092;-67
2023/06/30 00:06:24;;;;;;;18.83;12.02;;;;;;;15.13;98.25;101345.91;5014988;28;20359;-66
2023/06/30 00:08:50;;;;;;;21.17;12.10;;;;;;;15.11;98.08;101350.19;5014959;28;20497;-66
2023/06/30 00:11:16;;;;;;;20.95;12.57;;;;;;;15.06;98.49;101351.16;5014970;28;20029;-66
2023/06/30 00:13:42;;;;;;;20.77;12.35;;;;;;;15.05;98.72;101345.91;5014951;28;20517;-66
2023/06/30 00:16:08;;;;;;;20.13;11.70;;;;;;;14.99;98.98;101339.66;5014686;28;20030;-66
2023/06/30 00:18:33;;;;;;;24.13;12.27;;;;;;;14.95;98.90;101344.25;5014774;28;20025;-66
2023/06/30 00:20:58;;;;;;;19.63;12.13;;;;;;;14.90;99.47;101348.00;5013357;28;20029;-67
2023/06/30 00:23:27;;;;;;;21.40;12.43;;;;;;;14.87;99.83;101342.25;4993793;28;20117;-66
2023/06/30 00:25:53;;;;;;;22.42;12.10;;;;;;;14.77;100.00;101340.59;4995073;28;20022;-66
2023/06/30 00:28:18;;;;;;;20.25;12.52;;;;;;;14.71;100.00;101345.50;4995091;28;20022;-67
2023/06/30 00:30:44;;;;;;;22.27;13.00;;;;;;;14.64;100.00;101342.34;4994841;28;20467;-67
2023/06/30 00:33:09;;;;;;;19.33;12.70;;;;;;;14.58;100.00;101343.59;4994921;28;20033;-67
2023/06/30 00:35:34;;;;;;;19.05;11.98;;;;;;;14.61;100.00;101348.53;4994832;28;20042;-68
2023/06/30 00:38:00;;;;;;;20.67;12.50;;;;;;;14.57;100.00;101341.94;4994543;28;20030;-68
2023/06/30 00:40:25;;;;;;;20.73;12.50;;;;;;;14.57;100.00;101341.94;4994667;28;20109;-67
2023/06/30 00:42:51;;;;;;;19.25;11.50;;;;;;;14.50;100.00;101337.69;4994676;28;20053;-67
2023/06/30 00:45:16;;;;;;;21.38;12.40;;;;;;;14.49;100.00;101332.44;4994571;28;20044;-66
2023/06/30 00:47:41;;;;;;;21.17;12.15;;;;;;;14.44;100.00;101335.34;4994513;28;20450;-66
2023/06/30 00:50:07;;;;;;;23.05;12.40;;;;;;;14.41;100.00;101341.53;4994639;28;20537;-65
2023/06/30 00:52:32;;;;;;;20.60;12.15;;;;;;;14.35;100.00;101338.13;4994626;28;20022;-65
2023/06/30 00:54:58;;;;;;;21.77;12.30;;;;;;;14.33;100.00;101334.81;4993215;28;20060;-65
2023/06/30 00:57:23;;;;;;;21.65;12.75;;;;;;;14.28;100.00;101333.00;4994324;28;20037;-65
2023/06/30 00:59:48;;;;;;;22.35;11.93;;;;;;;14.31;100.00;101331.53;4993197;28;20040;-65
2023/06/30 01:02:24;;;;;;;19.73;12.05;;;;;;;14.22;100.00;101339.81;4994408;28;20072;-65
2023/06/30 01:04:57;;;;;;;23.05;11.90;;;;;;;14.20;100.00;101331.81;4994342;28;20081;-66
2023/06/30 01:07:25;;;;;;;19.63;11.50;;;;;;;14.25;100.00;101341.16;4994214;28;20026;-66
2023/06/30 01:10:13;;;;;;;22.80;12.38;;;;;;;14.24;100.00;101336.75;4993877;28;20030;-66
2023/06/30 01:12:39;;;;;;;21.98;11.98;;;;;;;14.15;100.00;101345.88;4994171;28;20030;-67
2023/06/30 01:15:07;;;;;;;19.38;11.50;;;;;;;14.13;100.00;101344.50;4994064;28;20038;-66
2023/06/30 01:17:34;;;;;;;20.50;11.70;;;;;;;14.14;100.00;101344.22;4994117;28;20034;-66
2023/06/30 01:20:00;;;;;;;21.45;11.73;;;;;;;14.14;100.00;101347.00;4993975;28;20136;-66
2023/06/30 01:22:40;;;;;;;21.52;11.40;;;;;;;14.09;100.00;101340.75;4993933;28;20042;-67
2023/06/30 01:25:09;;;;;;;20.63;11.70;;;;;;;14.04;100.00;101341.69;4993910;28;20034;-68
2023/06/30 01:27:36;;;;;;;20.58;11.35;;;;;;;14.04;100.00;101352.81;4993779;28;20030;-66
2023/06/30 01:30:05;;;;;;;23.10;11.80;;;;;;;13.94;100.00;101342.75;4993657;28;20046;-66
2023/06/30 01:32:31;;;;;;;21.13;11.80;;;;;;;13.94;100.00;101356.66;4994074;28;20057;-67
2023/06/30 01:34:56;;;;;;;23.35;12.00;;;;;;;13.93;100.00;101357.84;4993762;28;20065;-66
2023/06/30 01:37:22;;;;;;;20.80;11.75;;;;;;;13.88;100.00;101347.66;4993532;28;20062;-66
2023/06/30 01:39:47;;;;;;;21.83;12.48;;;;;;;13.92;100.00;101352.56;4993591;28;20030;-66
2023/06/30 01:42:13;;;;;;;20.17;12.05;;;;;;;13.87;100.00;101357.13;4993535;28;20033;-66
2023/06/30 01:44:39;;;;;;;20.33;12.13;;;;;;;13.83;100.00;101347.78;4992273;28;20077;-66
2023/06/30 01:47:05;;;;;;;19.40;12.25;;;;;;;13.84;100.00;101349.41;4993678;28;20541;-66
2023/06/30 01:49:32;;;;;;;20.55;12.50;;;;;;;13.84;100.00;101351.34;4993490;28;20109;-66
2023/06/30 01:51:58;;;;;;;20.40;11.50;;;;;;;13.84;100.00;101346.63;4993506;28;20105;-67
2023/06/30 01:54:23;;;;;;;24.25;12.23;;;;;;;13.80;100.00;101337.28;4993470;28;20129;-66
2023/06/30 01:56:49;;;;;;;21.42;11.90;;;;;;;13.82;100.00;101340.56;4993334;28;20084;-66
2023/06/30 01:59:15;;;;;;;20.80;11.77;;;;;;;13.81;100.00;101343.66;4993218;28;20037;-66
2023/06/30 02:01:41;;;;;;;20.73;12.23;;;;;;;13.72;100.00;101338.03;4992968;28;20022;-66
2023/06/30 02:04:06;;;;;;;20.40;12.38;;;;;;;13.68;100.00;101331.47;4993211;28;20029;-67
2023/06/30 02:06:32;;;;;;;20.52;12.38;;;;;;;13.66;100.00;101330.97;4993038;28;20422;-66
2023/06/30 02:08:58;;;;;;;19.88;12.38;;;;;;;13.59;100.00;101330.59;4993262;28;20065;-67
2023/06/30 02:11:23;;;;;;;19.73;12.02;;;;;;;13.54;100.00;101331.53;4993049;28;20493;-67
2023/06/30 02:13:48;;;;;;;22.38;12.98;;;;;;;13.50;100.00;101331.34;4993160;28;20080;-67
2023/06/30 02:16:13;;;;;;;21.98;12.68;;;;;;;13.44;100.00;101338.13;4991682;28;20041;-68
2023/06/30 02:18:39;;;;;;;21.52;11.98;;;;;;;13.44;100.00;101332.56;4992983;28;20104;-67
2023/06/30 02:21:05;;;;;;;21.95;12.75;;;;;;;13.35;100.00;101332.47;4992204;28;20445;-67
2023/06/30 02:23:31;;;;;;;20.13;13.10;;;;;;;13.32;100.00;101335.06;4992964;28;20026;-67
2023/06/30 02:25:57;;;;;;;20.33;12.77;;;;;;;13.22;100.00;101336.09;4991500;28;20359;-67
2023/06/30 02:28:22;;;;;;;23.23;13.60;;;;;;;13.16;100.00;101335.41;4992892;28;20034;-67
2023/06/30 02:30:47;;;;;;;25.80;13.38;;;;;;;13.15;100.00;101336.53;4992723;28;20050;-66
2023/06/30 02:33:13;;;;;;;22.38;13.45;;;;;;;13.10;100.00;101334.69;4992779;28;20092;-66
2023/06/30 02:35:38;;;;;;;21.30;12.15;;;;;;;13.08;100.00;101338.91;4992607;28;20026;-67
2023/06/30 02:38:04;;;;;;;22.85;12.90;;;;;;;13.06;100.00;101328.13;4992915;28;20136;-67
2023/06/30 02:40:29;;;;;;;22.42;12.02;;;;;;;13.04;100.00;101335.09;4992739;28;20034;-66
2023/06/30 02:42:55;;;;;;;24.60;14.15;;;;;;;13.00;100.00;101343.25;4992727;28;20056;-67
2023/06/30 02:45:20;;;;;;;24.52;13.30;;;;;;;12.95;100.00;101346.13;4992643;28;20499;-66
2023/06/30 02:47:46;;;;;;;23.23;12.48;;;;;;;12.96;100.00;101353.34;4992713;28;20057;-67
2023/06/30 02:50:11;;;;;;;23.02;13.30;;;;;;;12.97;100.00;101352.22;4992661;28;20067;-67
2023/06/30 02:52:36;;;;;;;22.83;13.35;;;;;;;12.90;100.00;101355.41;4992625;28;20061;-66
2023/06/30 02:55:02;;;;;;;21.52;12.45;;;;;;;12.88;100.00;101360.44;4992487;28;20109;-66
2023/06/30 02:57:27;;;;;;;22.50;12.90;;;;;;;12.87;100.00;101363.53;4992623;28;20026;-66
2023/06/30 02:59:53;;;;;;;22.10;12.27;;;;;;;12.90;100.00;101360.13;4992835;28;20041;-66
2023/06/30 03:02:18;;;;;;;22.30;13.00;;;;;;;12.90;100.00;101362.88;4992465;28;20026;-66
2023/06/30 03:04:43;;;;;;;21.63;12.57;;;;;;;12.89;100.00;101364.84;4992520;28;20030;-66
2023/06/30 03:07:09;;;;;;;22.67;12.25;;;;;;;12.86;100.00;101356.31;4992436;28;20022;-66
2023/06/30 03:09:34;;;;;;;22.15;11.73;;;;;;;12.86;100.00;101359.91;4992433;28;20023;-66
2023/06/30 03:12:00;;;;;;;21.77;12.80;;;;;;;12.85;100.00;101357.44;4992557;28;20367;-66
2023/06/30 03:14:25;;;;;;;20.75;12.88;;;;;;;12.88;100.00;101365.19;4992560;28;20375;-66
2023/06/30 03:16:51;;;;;;;19.75;12.40;;;;;;;12.88;100.00;101363.22;4992431;28;20034;-66
2023/06/30 03:19:17;;;;;;;19.48;11.93;;;;;;;12.89;100.00;101362.09;4992497;28;20125;-66
2023/06/30 03:21:42;;;;;;;20.50;12.48;;;;;;;12.86;100.00;101361.88;4992382;28;20066;-66
2023/06/30 03:24:08;;;;;;;20.77;12.77;;;;;;;12.81;100.00;101351.69;4992194;28;20053;-66
2023/06/30 03:26:33;;;;;;;21.85;12.52;;;;;;;12.84;100.00;101351.09;4992141;28;20105;-66
2023/06/30 03:29:01;;;;;;;20.75;12.25;;;;;;;12.82;100.00;101349.72;4992174;28;20053;-66
2023/06/30 03:31:26;;;;;;;21.73;12.27;;;;;;;12.85;100.00;101349.94;4992709;28;20037;-66
2023/06/30 03:33:52;;;;;;;21.20;12.30;;;;;;;12.82;100.00;101339.47;4995964;28;20110;-66
2023/06/30 03:36:17;;;;;;;23.23;11.88;;;;;;;12.80;100.00;101344.50;4996013;28;20382;-66
2023/06/30 03:38:42;;;;;;;20.67;12.02;;;;;;;12.82;100.00;101341.41;4995930;28;20038;-67
2023/06/30 03:41:08;;;;;;;20.45;12.20;;;;;;;12.80;100.00;101347.28;4996080;28;20113;-66
2023/06/30 03:43:33;;;;;;;20.67;11.77;;;;;;;12.80;100.00;101342.53;4994803;28;20133;-66
2023/06/30 03:45:58;;;;;;;21.40;11.70;;;;;;;12.80;100.00;101345.31;4995984;28;20050;-67
2023/06/30 03:48:24;;;;;;;22.67;11.60;;;;;;;12.77;100.00;101343.16;4995959;28;20034;-66
2023/06/30 03:50:52;;;;;;;19.25;11.52;;;;;;;12.82;100.00;101339.47;4995600;28;20117;-66
2023/06/30 03:53:17;;;;;;;19.92;11.57;;;;;;;13.02;100.00;101335.44;4995732;28;20518;-66
2023/06/30 03:55:43;;;;;;;20.63;11.70;;;;;;;13.38;100.00;101337.41;4995544;28;20113;-66
2023/06/30 03:58:08;;;;;;;20.75;11.07;;;;;;;13.53;100.00;101333.47;4995584;28;20483;-66
2023/06/30 04:00:33;;;;;;;21.85;11.02;;;;;;;13.50;100.00;101339.69;4995328;28;20512;-66
2023/06/30 04:02:59;;;;;;;19.58;10.95;;;;;;;13.40;100.00;101337.94;4995291;28;20022;-66
2023/06/30 04:05:25;;;;;;;19.77;11.32;;;;;;;13.24;100.00;101331.88;4995353;28;20093;-66
2023/06/30 04:07:50;;;;;;;18.10;10.48;;;;;;;13.15;100.00;101325.41;4995333;28;20026;-67
2023/06/30 04:10:16;;;;;;;21.00;11.38;;;;;;;13.10;100.00;101333.88;4995358;28;20479;-65
2023/06/30 04:12:42;;;;;;;21.95;11.38;;;;;;;13.07;100.00;101327.00;4995384;28;20034;-66
2023/06/30 04:15:10;;;;;;;20.55;11.07;;;;;;;13.08;100.00;101333.34;4995350;28;20117;-66
2023/06/30 04:17:38;;;;;;;19.98;11.02;;;;;;;13.08;100.00;101334.16;4995178;28;20114;-66
2023/06/30 04:20:09;;;;;;;20.05;10.80;;;;;;;13.06;100.00;101330.91;4995019;28;20481;-66
2023/06/30 04:22:36;;;;;;;19.85;10.88;;;;;;;13.03;100.00;101327.94;4995171;28;20030;-65
2023/06/30 04:25:01;;;;;;;20.48;10.88;;;;;;;13.10;100.00;101333.88;4994931;28;20035;-66
2023/06/30 04:27:26;;;;;;;19.70;11.20;;;;;;;13.09;100.00;101335.00;4995003;28;20031;-66
2023/06/30 04:29:51;;;;;;;19.67;11.60;;;;;;;13.10;100.00;101331.91;4994734;28;20054;-68
2023/06/30 04:32:17;;;;;;;19.90;11.00;;;;;;;13.12;100.00;101339.94;4994741;28;20038;-67
2023/06/30 04:34:42;;;;;;;20.38;11.18;;;;;;;13.17;100.00;101328.72;4995091;28;20038;-67
2023/06/30 04:37:08;;;;;;;21.13;12.10;;;;;;;13.15;100.00;101330.97;4994809;28;20038;-66
2023/06/30 04:39:34;;;;;;;21.90;12.05;;;;;;;13.18;100.00;101333.13;4994875;28;20419;-67
2023/06/30 04:41:59;;;;;;;22.10;11.55;;;;;;;13.20;100.00;101330.03;4994759;28;20026;-67
2023/06/30 04:44:24;;;;;;;20.60;11.57;;;;;;;13.24;100.00;101328.28;4992700;28;20074;-66
2023/06/30 04:46:50;;;;;;;20.13;11.40;;;;;;;13.29;100.00;101330.13;5005310;28;20386;-66
2023/06/30 04:49:15;;;;;;;21.77;11.20;;;;;;;13.30;100.00;101327.03;5014269;28;20450;-65
2023/06/30 04:51:40;;;;;;;21.67;11.40;;;;;;;13.34;100.00;101327.22;5011919;28;20025;-66
2023/06/30 04:54:06;;;;;;;19.58;11.60;;;;;;;13.35;100.00;101331.66;4994506;28;20367;-66
2023/06/30 04:56:31;;;;;;;20.83;11.55;;;;;;;13.41;100.00;101342.38;4993097;28;20471;-66
2023/06/30 04:58:56;;;;;;;20.13;11.65;;;;;;;13.44;100.00;101335.34;4994380;28;20049;-66
2023/06/30 05:01:22;;;;;;;20.58;11.60;;;;;;;13.56;100.00;101334.78;4994113;28;20029;-67
2023/06/30 05:03:47;;;;;;;19.60;11.18;;;;;;;13.69;100.00;101342.28;4994288;28;20092;-65
2023/06/30 05:06:13;;;;;;;21.23;10.90;;;;;;;13.80;100.00;101339.25;4994542;28;20486;-65
2023/06/30 05:08:38;;;;;;;18.02;10.73;;;;;;;13.86;100.00;101343.53;4992817;28;20320;-65
2023/06/30 05:11:04;;;;;;;20.08;11.90;;;;;;;13.88;99.82;101341.25;4992769;28;20037;-65
2023/06/30 05:13:31;;;;;;;19.48;11.40;;;;;;;13.91;99.63;101342.56;4997476;28;20124;-65
2023/06/30 05:15:56;;;;;;;19.08;10.82;;;;;;;14.00;99.78;101340.66;4997000;28;20422;-65
2023/06/30 05:18:21;;;;;;;20.17;11.55;;;;;;;13.98;99.13;101332.66;4993772;28;20038;-65
2023/06/30 05:20:47;;;;;;;21.17;11.07;;;;;;;14.09;98.81;101338.75;4993764;28;20561;-65
2023/06/30 05:23:12;;;;;;;19.75;10.65;;;;;;;14.22;98.94;101330.66;4993987;28;20018;-65
2023/06/30 05:25:38;;;;;;;19.15;10.90;;;;;;;14.24;97.57;101325.59;4993795;28;20022;-65
2023/06/30 05:28:03;;;;;;;19.08;10.95;;;;;;;14.34;98.16;101334.50;4993913;28;20110;-64
2023/06/30 05:30:28;;;;;;;19.80;10.75;;;;;;;14.39;96.49;101339.09;5002598;28;20042;-65
2023/06/30 05:32:54;;;;;;;21.15;11.50;;;;;;;14.41;95.24;101347.94;5011629;28;20651;-65
2023/06/30 05:35:19;;;;;;;20.42;11.27;;;;;;;14.38;95.81;101345.00;5012870;28;20032;-66
2023/06/30 05:37:46;;;;;;;19.85;10.77;;;;;;;14.31;94.57;101337.09;5013159;28;20069;-65
2023/06/30 05:40:12;;;;;;;21.17;11.70;;;;;;;14.37;94.56;101346.13;5013037;28;20030;-66
2023/06/30 05:42:37;;;;;;;20.92;11.00;;;;;;;14.43;95.79;101336.50;5013370;28;20029;-66
2023/06/30 05:45:02;;;;;;;21.60;11.00;;;;;;;14.47;93.20;101343.06;5002134;28;20068;-65
2023/06/30 05:47:28;;;;;;;19.40;10.25;;;;;;;14.48;92.97;101353.06;4993523;28;20459;-64
2023/06/30 05:49:53;;;;;;;18.23;10.10;;;;;;;14.54;93.09;101351.78;4993569;28;20027;-67
2023/06/30 05:52:21;;;;;;;23.05;11.52;;;;;;;14.54;92.68;101360.13;4992107;28;20111;-64
2023/06/30 05:54:46;;;;;;;20.13;11.00;;;;;;;14.63;92.58;101357.38;4993489;28;20153;-65
2023/06/30 05:57:12;;;;;;;18.05;10.98;;;;;;;14.65;91.97;101357.88;4992322;28;20516;-65
2023/06/30 05:59:38;;;;;;;19.30;11.20;;;;;;;14.71;92.00;101350.22;4993185;28;20494;-65
2023/06/30 06:02:04;;;;;;;18.85;10.65;;;;;;;14.84;92.28;101348.47;4993156;28;20097;-67
2023/06/30 06:04:30;;;;;;;20.15;11.13;;;;;;;14.85;90.18;101348.16;4992948;28;20132;-65
2023/06/30 06:06:55;;;;;;;21.75;11.07;;;;;;;14.89;90.83;101360.28;4993145;28;20045;-64
2023/06/30 06:09:21;;;;;;;19.88;11.02;;;;;;;14.88;89.93;101343.91;4992917;28;20030;-65
2023/06/30 06:11:46;;;;;;;19.70;10.95;;;;;;;14.92;89.65;101350.47;4992881;28;20042;-65
2023/06/30 06:14:11;;;;;;;20.90;11.23;;;;;;;14.98;89.42;101343.59;4992924;28;20060;-64
2023/06/30 06:16:36;;;;;;;20.45;11.27;;;;;;;15.06;89.42;101351.16;4992781;28;20042;-65
2023/06/30 06:19:02;;;;;;;17.80;10.48;;;;;;;15.11;89.26;101347.41;4992837;28;20026;-65
2023/06/30 06:21:27;;;;;;;17.13;10.40;;;;;;;15.22;88.43;101351.53;4992850;28;20386;-65
2023/06/30 06:23:56;;;;;;;23.02;11.27;;;;;;;15.30;88.24;101347.13;4992829;28;20033;-65
2023/06/30 06:26:21;;;;;;;19.77;10.80;;;;;;;15.37;87.58;101358.59;4992886;28;20050;-68
2023/06/30 06:28:47;;;;;;;18.60;11.10;;;;;;;15.43;86.06;101362.84;4992986;28;20367;-66
2023/06/30 06:31:12;;;;;;;19.88;10.68;;;;;;;15.53;86.02;101349.72;4992492;28;20181;-66
2023/06/30 06:33:37;;;;;;;18.17;10.82;;;;;;;15.66;86.50;101353.50;4992732;28;20423;-67
2023/06/30 06:36:03;;;;;;;17.88;10.82;;;;;;;15.77;85.12;101349.22;4992962;28;20093;-66
2023/06/30 06:38:28;;;;;;;19.77;11.68;;;;;;;15.90;84.07;101350.22;4992877;28;20447;-67
2023/06/30 06:40:53;;;;;;;16.45;9.95;;;;;;;16.01;83.04;101351.53;4992753;28;20034;-65
2023/06/30 06:43:19;;;;;;;17.73;10.63;;;;;;;16.14;80.16;101360.84;4992855;28;20031;-66
2023/06/30 06:45:46;;;;;;;19.05;10.50;;;;;;;16.11;79.55;101360.72;4992652;28;20086;-66
2023/06/30 06:48:18;;;;;;;17.10;9.73;;;;;;;16.15;76.70;101367.28;4992900;28;20065;-66
2023/06/30 06:50:43;;;;;;;17.52;10.13;;;;;;;16.29;78.47;101359.50;4991398;28;20035;-65
2023/06/30 06:53:08;;;;;;;17.85;10.43;;;;;;;16.50;79.52;101356.81;4992625;28;20026;-65
2023/06/30 06:55:35;;;;;;;16.70;9.60;;;;;;;16.62;76.58;101358.09;4992680;28;20023;-65
2023/06/30 06:58:00;;;;;;;19.50;10.57;;;;;;;16.67;74.01;101355.13;4992754;28;20058;-64
2023/06/30 07:00:26;;;;;;;15.23;9.30;;;;;;;16.74;73.87;101354.56;4992571;28;20058;-67
2023/06/30 07:02:52;;;;;;;15.27;9.13;;;;;;;16.78;71.77;101356.34;4992767;28;20034;-65
2023/06/30 07:05:18;;;;;;;15.38;9.10;;;;;;;16.77;70.02;101365.09;4992699;28;20026;-66
2023/06/30 07:07:43;;;;;;;15.07;8.70;;;;;;;16.71;69.85;101361.66;5006030;28;20026;-66
2023/06/30 07:10:11;;;;;;;14.25;8.60;;;;;;;16.76;69.88;101360.66;4995221;28;20073;-65
2023/06/30 07:12:36;;;;;;;16.98;9.00;;;;;;;16.82;69.43;101362.91;4990763;28;20121;-65
2023/06/30 07:15:02;;;;;;;14.77;8.90;;;;;;;16.80;68.02;101364.41;4974580;28;20121;-66
2023/06/30 07:17:27;;;;;;;15.65;8.65;;;;;;;16.84;66.04;101355.03;4982725;28;20116;-65
2023/06/30 07:19:53;;;;;;;15.50;8.80;;;;;;;16.86;65.99;101362.25;5013805;28;20151;-65
2023/06/30 07:22:18;;;;;;;13.10;8.50;;;;;;;16.91;64.15;101360.06;5013584;28;20464;-64
2023/06/30 07:24:43;;;;;;;15.00;8.50;;;;;;;16.99;62.77;101367.66;5013913;28;20044;-65
2023/06/30 07:27:09;;;;;;;16.88;9.02;;;;;;;17.11;63.86;101357.69;5014615;28;20029;-65
2023/06/30 07:29:34;;;;;;;15.95;8.98;;;;;;;17.15;65.01;101364.25;5014520;28;20351;-65
2023/06/30 07:32:00;;;;;;;13.55;8.90;;;;;;;17.22;64.19;101363.72;5012164;28;20106;-66
2023/06/30 07:34:26;;;;;;;12.65;8.68;;;;;;;17.25;62.61;101360.22;4994726;28;20375;-65
2023/06/30 07:36:51;;;;;;;16.20;9.60;;;;;;;17.27;65.05;101361.53;4994646;28;20506;-66
2023/06/30 07:39:17;;;;;;;17.38;9.30;;;;;;;17.37;66.25;101368.69;4994480;28;20026;-66
2023/06/30 07:41:42;;;;;;;14.60;9.05;;;;;;;17.51;63.80;101376.81;4994202;28;20419;-66
2023/06/30 07:44:10;;;;;;;15.00;9.20;;;;;;;17.70;64.96;101367.97;4994300;28;20041;-66
2023/06/30 07:46:36;;;;;;;12.93;8.90;;;;;;;17.87;64.50;101375.38;4993500;28;20026;-65
2023/06/30 07:49:01;;;;;;;16.92;9.50;;;;;;;17.95;64.05;101367.25;4993579;28;20041;-66
2023/06/30 07:51:26;;;;;;;14.43;9.48;;;;;;;17.98;62.98;101369.38;4993432;28;20034;-66
2023/06/30 07:53:52;;;;;;;13.75;9.13;;;;;;;18.06;62.55;101362.88;4993401;28;20066;-66
2023/06/30 07:56:17;;;;;;;17.33;9.65;;;;;;;18.08;62.43;101366.97;4993157;28;20028;-65
2023/06/30 07:58:42;;;;;;;16.20;8.95;;;;;;;18.08;61.92;101363.34;4993133;28;20089;-66
2023/06/30 08:01:08;;;;;;;14.88;8.95;;;;;;;18.16;62.10;101364.44;4992700;28;20026;-66
2023/06/30 08:03:33;;;;;;;14.32;9.13;;;;;;;18.22;61.09;101365.84;4992754;28;20041;-66
2023/06/30 08:05:59;;;;;;;16.70;9.18;;;;;;;18.30;61.15;101366.91;4991395;28;20026;-66
2023/06/30 08:08:25;;;;;;;14.77;9.57;;;;;;;18.36;63.15;101362.72;4991745;28;20034;-65
2023/06/30 08:10:50;;;;;;;15.80;9.55;;;;;;;18.47;61.42;101366.72;4993927;28;20076;-65
2023/06/30 08:13:17;;;;;;;16.80;9.40;;;;;;;18.65;62.17;101352.47;4992584;28;20097;-65
2023/06/30 08:15:42;;;;;;;16.48;9.15;;;;;;;18.65;55.76;101367.31;4993991;28;20545;-67
2023/06/30 08:18:07;;;;;;;13.15;8.40;;;;;;;18.57;54.55;101376.63;4991593;28;20041;-67
2023/06/30 08:20:33;;;;;;;15.05;9.27;;;;;;;18.72;56.90;101352.72;4991878;28;20573;-66
2023/06/30 08:22:59;;;;;;;16.20;8.73;;;;;;;18.87;55.89;101351.19;4993311;28;20052;-67
2023/06/30 08:25:25;;;;;;;14.68;8.48;;;;;;;19.01;55.68;101357.31;4993015;28;20026;-67
2023/06/30 08:27:51;;;;;;;14.77;8.80;;;;;;;19.11;55.67;101364.41;4993085;28;20034;-67
2023/06/30 08:30:17;;;;;;;14.88;8.10;;;;;;;19.21;56.04;101349.09;4992633;28;20485;-67
2023/06/30 08:32:43;;;;;;;14.57;8.68;;;;;;;19.32;55.34;101341.00;4991665;28;20098;-67
2023/06/30 08:35:08;;;;;;;13.77;8.70;;;;;;;19.44;55.86;101351.38;4992715;28;20041;-67
2023/06/30 08:37:34;;;;;;;15.57;8.50;;;;;;;19.44;54.08;101368.22;4992718;28;20030;-67
2023/06/30 08:40:01;;;;;;;11.57;8.30;;;;;;;19.47;53.59;101345.06;4992628;28;20026;-66
2023/06/30 08:42:31;;;;;;;16.40;8.85;;;;;;;19.58;55.74;101334.16;4992476;28;20042;-66
2023/06/30 08:45:02;;;;;;;13.88;8.13;;;;;;;19.69;50.29;101352.13;4992923;28;20529;-66
2023/06/30 08:47:32;;;;;;;12.68;8.70;;;;;;;19.86;51.07;101341.78;4993030;28;20042;-66
2023/06/30 08:49:58;;;;;;;13.52;8.40;;;;;;;19.94;49.72;101330.41;4991479;28;20118;-67
2023/06/30 08:52:24;;;;;;;13.75;8.30;;;;;;;20.00;49.37;101330.13;4992691;28;20112;-67
2023/06/30 08:54:50;;;;;;;15.00;8.50;;;;;;;20.15;51.60;101323.75;4992772;28;20032;-65
2023/06/30 08:57:15;;;;;;;13.93;8.60;;;;;;;20.15;50.41;101331.34;4993571;28;20022;-67
2023/06/30 08:59:44;;;;;;;13.50;8.57;;;;;;;20.30;50.92;101330.56;4991865;28;20496;-68
2023/06/30 09:02:13;;;;;;;16.08;8.70;;;;;;;20.44;49.32;101326.47;4993281;28;20025;-67
2023/06/30 09:04:42;;;;;;;14.77;8.70;;;;;;;20.58;50.63;101326.84;4993074;28;20035;-66
2023/06/30 09:07:13;;;;;;;14.57;8.52;;;;;;;20.53;50.83;101333.56;4993050;28;20099;-67
2023/06/30 09:09:44;;;;;;;16.67;8.60;;;;;;;20.65;48.91;101326.19;5005595;28;20034;-67
2023/06/30 09:12:10;;;;;;;15.15;8.88;;;;;;;20.92;47.87;101334.91;4997098;28;20111;-66
2023/06/30 09:14:38;;;;;;;16.40;8.63;;;;;;;20.95;47.68;101322.91;4992934;28;20029;-67
2023/06/30 09:17:04;;;;;;;15.65;8.90;;;;;;;21.17;48.76;101315.75;4992835;28;20044;-67
2023/06/30 09:19:29;;;;;;;14.68;8.90;;;;;;;21.21;48.55;101318.69;4993144;28;20480;-67
2023/06/30 09:21:58;;;;;;;14.18;8.93;;;;;;;21.05;48.17;101322.34;4993009;28;20022;-67
2023/06/30 09:24:25;;;;;;;13.60;8.40;;;;;;;21.03;48.94;101316.25;4992259;28;20052;-66
2023/06/30 09:26:52;;;;;;;16.92;9.40;;;;;;;21.11;51.33;101317.25;4993043;28;20062;-67
2023/06/30 09:29:22;;;;;;;14.73;8.70;;;;;;;21.22;49.63;101318.31;4989677;28;20038;-66
2023/06/30 09:31:51;;;;;;;15.82;8.90;;;;;;;21.33;49.05;101321.34;4977047;28;20546;-66
2023/06/30 09:34:19;;;;;;;15.20;9.50;;;;;;;21.37;48.09;101322.25;4997038;28;20036;-67
2023/06/30 09:36:50;;;;;;;18.92;8.98;;;;;;;21.58;49.09;101316.28;5010230;28;20033;-66
2023/06/30 09:39:16;;;;;;;15.73;9.75;;;;;;;21.68;47.05;101326.13;4984988;28;20030;-67
2023/06/30 09:41:43;;;;;;;16.20;9.02;;;;;;;21.61;46.84;101325.97;4972991;28;20038;-67
2023/06/30 09:44:13;;;;;;;15.27;9.07;;;;;;;21.54;45.89;101328.63;4972399;28;20487;-67
2023/06/30 09:46:52;;;;;;;14.32;8.95;;;;;;;21.44;47.03;101313.16;4972251;28;20084;-67
2023/06/30 09:49:30;;;;;;;16.58;9.35;;;;;;;21.71;47.07;101311.31;4972772;28;20066;-66
2023/06/30 09:51:57;;;;;;;16.20;8.75;;;;;;;22.01;47.27;101301.41;4972979;28;20039;-66
2023/06/30 09:54:23;;;;;;;14.20;8.63;;;;;;;22.04;45.69;101311.91;4972022;28;20039;-66
2023/06/30 09:56:56;;;;;;;14.75;8.73;;;;;;;22.17;46.37;101316.19;4972228;28;20105;-67
2023/06/30 09:59:22;;;;;;;;;;;;;;;22.17;47.78;101307.75;4973092;28;20415;-67
2023/06/30 10:01:52;;;;;;;13.15;8.45;;;;;;;21.88;45.75;101306.38;4972695;28;19925;-66
2023/06/30 10:04:17;;;;;;;13.93;8.43;;;;;;;22.00;47.38;101309.03;4971410;28;20137;-66
2023/06/30 10:06:45;;;;;;;15.32;8.75;;;;;;;22.11;46.12;101303.59;4972334;28;20174;-66
2023/06/30 10:09:11;;;;;;;12.93;8.80;;;;;;;22.27;46.25;101304.31;4972528;28;20038;-66
2023/06/30 10:11:39;;;;;;;14.90;8.60;;;;;;;22.22;46.13;101298.97;4972498;28;20034;-66
2023/06/30 10:14:05;;;;;;;14.82;8.25;;;;;;;22.09;44.33;101297.53;4972530;28;20038;-67
2023/06/30 10:16:30;;;;;;;16.42;8.40;;;;;;;21.81;44.85;101307.09;4972329;28;20038;-66
2023/06/30 10:19:00;;;;;;;15.20;8.40;;;;;;;22.01;42.97;101295.78;4972407;28;20526;-67
2023/06/30 10:21:27;;;;;;;15.57;8.95;;;;;;;22.12;43.21;101305.22;4972452;28;20030;-66
2023/06/30 10:23:53;;;;;;;14.82;9.00;;;;;;;22.10;43.93;101299.16;4971921;28;20050;-65
2023/06/30 10:26:21;;;;;;;13.65;8.80;;;;;;;22.13;46.51;101298.41;4972325;28;20046;-66
2023/06/30 10:28:47;;;;;;;16.63;8.40;;;;;;;22.05;44.85;101293.81;4973062;28;20031;-66
2023/06/30 10:31:13;;;;;;;16.08;8.70;;;;;;;22.27;44.62;101295.84;4972365;28;20082;-66
2023/06/30 10:33:39;;;;;;;18.55;9.13;;;;;;;22.34;43.28;101297.16;4970818;28;20360;-68
2023/06/30 10:36:06;;;;;;;14.60;8.23;;;;;;;22.25;43.15;101286.13;4971944;28;20037;-67
2023/06/30 10:38:31;;;;;;;14.90;8.18;;;;;;;22.32;44.04;101280.63;4971862;28;20360;-67
2023/06/30 10:41:19;;;;;;;14.68;8.30;;;;;;;22.53;46.17;101285.81;4972090;28;20041;-67
2023/06/30 10:44:03;;;;;;;17.02;9.20;;;;;;;22.58;45.78;101287.50;4972203;28;20039;-66
2023/06/30 10:46:45;;;;;;;13.13;8.73;;;;;;;22.62;45.42;101281.94;4988803;28;20083;-67
2023/06/30 10:49:17;;;;;;;16.77;9.18;;;;;;;22.55;43.84;101288.25;5006750;28;20041;-67
2023/06/30 10:51:51;;;;;;;16.20;8.98;;;;;;;22.47;44.20;101280.88;4991472;28;20038;-66
2023/06/30 10:54:20;;;;;;;16.63;9.02;;;;;;;22.47;44.56;101273.25;4991596;28;20108;-66
2023/06/30 10:56:46;;;;;;;15.95;9.30;;;;;;;22.83;44.38;101267.31;4991458;28;20030;-66
2023/06/30 10:59:25;;;;;;;14.85;9.05;;;;;;;23.15;43.70;101261.31;4990097;28;20402;-66
2023/06/30 11:02:18;;;;;;;16.80;8.23;;;;;;;23.15;43.38;101262.13;4991362;28;20810;-66
2023/06/30 11:04:45;;;;;;;12.87;8.40;;;;;;;22.97;42.42;101263.91;4991549;28;20038;-65
2023/06/30 11:07:25;;;;;;;13.40;8.48;;;;;;;22.88;43.38;101258.56;4991433;28;20026;-66